Time;durP1;ratioP1;P1;durP2;ratioP2;P2;SDS_P1;SDS_P2;PMS_P1;PMS_P2;Temp;Humidity;BMP_temperature;BMP_pressure;BME280_temperature;BME280_humidity;BME280_pressure;Samples;Min_cycle;Max_cycle;Signal;HPM_P1;HPM_P2
2023/01/02 00:02:06;;;;;;;9.27;2.23;;;;;;;12.46;80.13;99410.72;4946965;28;20728;-92
2023/01/02 00:04:31;;;;;;;8.55;3.15;;;;;;;12.53;79.29;99421.28;4964637;28;20318;-92
2023/01/02 00:06:57;;;;;;;7.00;2.37;;;;;;;12.49;79.63;99434.72;4962863;28;20041;-94
2023/01/02 00:09:24;;;;;;;8.10;2.53;;;;;;;12.52;79.59;99424.31;4962487;28;20962;-94
2023/01/02 00:11:49;;;;;;;10.00;2.92;;;;;;;12.49;79.63;99420.22;4962201;28;20038;-95
2023/01/02 00:14:14;;;;;;;10.68;3.72;;;;;;;12.52;79.49;99421.59;4963352;28;20075;-94
2023/01/02 00:16:39;;;;;;;13.33;3.73;;;;;;;12.52;80.05;99418.84;4965226;28;20135;-95
2023/01/02 00:19:07;;;;;;;9.37;2.87;;;;;;;12.53;79.74;99417.75;4948396;28;20330;-95
2023/01/02 00:21:32;;;;;;;10.52;3.38;;;;;;;12.53;79.87;99415.03;4964124;28;20839;-92
2023/01/02 00:23:58;;;;;;;8.68;3.05;;;;;;;12.53;80.00;99413.09;4963752;28;20351;-93
2023/01/02 00:26:23;;;;;;;10.33;2.97;;;;;;;12.54;80.06;99417.47;4964148;28;20044;-92
2023/01/02 00:28:48;;;;;;;10.07;2.93;;;;;;;12.55;81.15;99423.75;4963244;28;20385;-93
2023/01/02 00:31:14;;;;;;;12.73;2.33;;;;;;;12.53;81.26;99425.97;4986757;28;20303;-96
2023/01/02 00:33:39;;;;;;;6.43;2.40;;;;;;;12.52;81.60;99427.06;4992342;28;20863;-96
2023/01/02 00:36:10;;;;;;;10.27;2.97;;;;;;;12.49;81.88;99432.00;4972709;28;21213;-92
2023/01/02 00:38:36;;;;;;;9.95;3.53;;;;;;;12.47;82.25;99419.69;4963770;28;20050;-93
2023/01/02 00:41:02;;;;;;;6.68;2.33;;;;;;;12.46;82.63;99420.81;4964488;28;20045;-93
2023/01/02 00:43:27;;;;;;;12.05;3.97;;;;;;;12.42;83.26;99411.56;4962789;28;20593;-92
2023/01/02 00:45:53;;;;;;;9.10;2.75;;;;;;;12.48;83.04;99404.94;4962266;28;21250;-89
2023/01/02 00:48:19;;;;;;;7.30;3.42;;;;;;;12.47;83.67;99415.06;4960764;28;20053;-90
2023/01/02 00:50:45;;;;;;;6.88;2.42;;;;;;;12.39;83.43;99421.13;4976203;28;20033;-96
2023/01/02 00:53:11;;;;;;;14.93;3.42;;;;;;;12.41;84.36;99402.53;5023012;28;20026;-96
2023/01/02 00:55:36;;;;;;;7.22;3.60;;;;;;;12.37;84.45;99398.72;5025294;28;20029;-96
2023/01/02 00:58:01;;;;;;;11.65;3.42;;;;;;;12.34;85.09;99411.06;4974970;28;21021;-96
2023/01/02 01:00:27;;;;;;;5.70;2.50;;;;;;;12.31;86.19;99419.00;4996971;28;20515;-93
2023/01/02 01:02:58;;;;;;;12.70;3.83;;;;;;;12.24;87.42;99417.41;4962154;28;20061;-93
2023/01/02 01:05:25;;;;;;;8.40;3.15;;;;;;;12.22;87.56;99424.28;4964387;28;20050;-96
2023/01/02 01:07:50;;;;;;;8.02;2.97;;;;;;;12.17;87.83;99411.47;4990257;28;20758;-96
2023/01/02 01:10:16;;;;;;;5.45;2.70;;;;;;;12.20;88.11;99416.38;4979074;28;20578;-93
2023/01/02 01:12:41;;;;;;;10.15;2.75;;;;;;;12.23;88.48;99404.84;4962124;28;20037;-93
2023/01/02 01:15:07;;;;;;;12.95;2.60;;;;;;;12.18;88.62;99418.56;4962921;28;20701;-95
2023/01/02 01:17:32;;;;;;;5.97;1.83;;;;;;;12.29;88.35;99413.00;4962059;28;20065;-95
2023/01/02 01:19:58;;;;;;;11.23;4.13;;;;;;;12.21;88.34;99409.78;4944510;28;20184;-94
2023/01/02 01:22:23;;;;;;;8.07;2.97;;;;;;;12.28;88.29;99409.47;4961915;28;20087;-89
2023/01/02 01:24:49;;;;;;;6.90;3.25;;;;;;;12.29;87.70;99407.53;4944259;28;20701;-89
2023/01/02 01:27:14;;;;;;;8.88;2.40;;;;;;;12.34;88.07;99388.38;4961586;28;20561;-92
2023/01/02 01:29:39;;;;;;;8.40;2.92;;;;;;;12.39;88.03;99398.47;4961676;28;20041;-92
2023/01/02 01:32:05;;;;;;;10.95;2.58;;;;;;;12.34;87.42;99402.06;4962354;28;21054;-89
2023/01/02 01:34:30;;;;;;;10.95;3.20;;;;;;;12.31;87.82;99408.06;4962542;28;20525;-89
2023/01/02 01:36:55;;;;;;;10.25;3.45;;;;;;;12.35;87.74;99392.72;4962056;28;20630;-94
2023/01/02 01:39:20;;;;;;;8.43;2.97;;;;;;;12.36;87.43;99402.59;4960387;28;20654;-94
2023/01/02 01:41:46;;;;;;;8.93;2.90;;;;;;;12.37;87.18;99412.41;4961648;28;20473;-89
2023/01/02 01:44:41;;;;;;;19.63;3.73;;;;;;;12.29;87.15;99404.81;4961501;28;20694;-89
2023/01/02 01:47:12;;;;;;;13.52;3.30;;;;;;;12.35;86.47;99407.22;4967510;28;20935;-96
2023/01/02 01:49:37;;;;;;;9.52;3.03;;;;;;;12.38;86.45;99411.31;4968760;28;21231;-96
2023/01/02 01:52:08;;;;;;;9.60;3.38;;;;;;;12.40;86.38;99406.38;4963865;28;20654;-93
2023/01/02 01:54:43;;;;;;;14.63;4.55;;;;;;;12.41;86.02;99413.47;4962157;28;20071;-93
2023/01/02 01:57:17;;;;;;;18.08;3.97;;;;;;;12.31;85.47;99414.38;5013091;28;20029;-96
2023/01/02 01:59:44;;;;;;;25.67;5.18;;;;;;;12.36;85.26;99408.06;5018395;28;20493;-96
2023/01/02 02:02:09;;;;;;;13.32;2.70;;;;;;;12.37;85.45;99410.50;4973837;28;20184;-94
2023/01/02 02:04:35;;;;;;;10.05;2.83;;;;;;;12.35;85.35;99406.41;4961672;28;20177;-94
2023/01/02 02:07:00;;;;;;;6.03;2.25;;;;;;;12.31;85.20;99419.00;4963896;28;20041;-94
2023/01/02 02:09:34;;;;;;;11.48;3.75;;;;;;;12.32;84.81;99428.84;4961437;28;20602;-93
2023/01/02 02:12:00;;;;;;;7.00;2.67;;;;;;;12.31;84.38;99408.06;4962558;28;20558;-92
2023/01/02 02:14:26;;;;;;;6.35;2.35;;;;;;;12.31;84.97;99416.28;4960759;28;20731;-91
2023/01/02 02:17:06;;;;;;;8.87;2.80;;;;;;;12.30;84.85;99420.94;4997162;28;20137;-96
2023/01/02 02:20:09;;;;;;;12.55;3.47;;;;;;;12.29;85.49;99402.06;5029253;28;20390;-96
2023/01/02 02:23:01;;;;;;;11.52;3.35;;;;;;;12.24;85.28;99411.16;5011826;28;20097;-96
2023/01/02 02:25:40;;;;;;;9.57;3.05;;;;;;;12.24;85.18;99411.16;4969824;28;21280;-92
2023/01/02 02:28:37;;;;;;;12.13;2.55;;;;;;;12.26;85.43;99404.28;4959894;28;20048;-92
2023/01/02 02:31:05;;;;;;;7.95;2.85;;;;;;;12.23;85.81;99415.78;4945744;28;20037;-96
2023/01/02 02:33:46;;;;;;;5.88;2.45;;;;;;;12.25;85.61;99421.78;4966673;28;20159;-96
2023/01/02 02:36:39;;;;;;;15.27;3.38;;;;;;;12.22;85.43;99408.72;4965167;28;20230;-94
2023/01/02 02:39:20;;;;;;;8.45;2.92;;;;;;;12.24;84.72;99400.22;4960819;28;20873;-94
2023/01/02 02:42:19;;;;;;;9.80;3.03;;;;;;;12.30;84.71;99411.91;4960850;28;20041;-94
2023/01/02 02:45:07;;;;;;;10.68;2.72;;;;;;;12.30;85.07;99395.53;4959854;28;20046;-94
2023/01/02 02:47:50;;;;;;;6.70;3.47;;;;;;;12.25;84.76;99404.56;4961011;28;20042;-94
2023/01/02 02:50:31;;;;;;;9.35;3.08;;;;;;;12.20;84.66;99407.34;4960733;28;20045;-89
2023/01/02 02:53:11;;;;;;;9.52;3.03;;;;;;;12.26;84.76;99396.06;4961232;28;20138;-89
2023/01/02 02:55:42;;;;;;;9.07;3.03;;;;;;;12.27;84.68;99394.16;4966131;28;20045;-96
2023/01/02 02:58:08;;;;;;;8.88;3.00;;;;;;;12.26;84.90;99403.47;4997143;28;20044;-96
2023/01/02 03:00:34;;;;;;;8.77;2.33;;;;;;;12.28;84.85;99406.75;4989656;28;20116;-96
2023/01/02 03:02:59;;;;;;;9.18;2.90;;;;;;;12.22;84.43;99416.91;4978096;28;20062;-96
2023/01/02 03:05:35;;;;;;;14.02;4.43;;;;;;;12.25;84.60;99410.03;4982198;28;20042;-96
2023/01/02 03:08:07;;;;;;;15.57;3.30;;;;;;;12.25;84.74;99396.38;4996654;28;20314;-96
2023/01/02 03:10:52;;;;;;;8.32;2.50;;;;;;;12.24;84.52;99386.56;4989986;28;20037;-96
2023/01/02 03:13:46;;;;;;;8.25;3.63;;;;;;;12.25;85.23;99374.50;5004589;28;20044;-96
2023/01/02 03:16:25;;;;;;;7.95;3.22;;;;;;;12.18;84.40;99383.03;4990471;28;20763;-96
2023/01/02 03:19:08;;;;;;;5.50;2.72;;;;;;;12.19;84.91;99372.91;4958626;28;20556;-96
2023/01/02 03:21:59;;;;;;;8.65;2.63;;;;;;;12.18;85.26;99369.38;4950564;28;20597;-93
2023/01/02 03:24:26;;;;;;;4.53;2.53;;;;;;;12.19;85.55;99375.66;4960190;28;20037;-94
2023/01/02 03:27:01;;;;;;;9.52;2.65;;;;;;;12.20;85.50;99389.03;4967250;28;20038;-96
2023/01/02 03:29:40;;;;;;;7.13;2.97;;;;;;;12.16;85.62;99390.72;4973506;28;20049;-96
2023/01/02 03:32:19;;;;;;;8.48;3.55;;;;;;;12.14;86.04;99384.72;4968029;28;20822;-94
2023/01/02 03:34:47;;;;;;;6.63;2.85;;;;;;;12.09;85.96;99387.44;4941191;28;20029;-93
2023/01/02 03:37:24;;;;;;;11.93;3.10;;;;;;;12.14;86.47;99406.56;4943418;28;20040;-89
2023/01/02 03:39:54;;;;;;;8.60;2.92;;;;;;;12.12;86.31;99422.44;4943295;28;20478;-89
2023/01/02 03:42:34;;;;;;;13.27;2.70;;;;;;;12.07;87.64;99422.44;4960804;28;20144;-89
2023/01/02 03:45:05;;;;;;;20.05;3.80;;;;;;;12.09;87.70;99406.56;4958825;28;20037;-89
2023/01/02 03:47:40;;;;;;;8.00;3.85;;;;;;;12.03;87.61;99420.28;4983922;28;20042;-96
2023/01/02 03:50:11;;;;;;;11.38;3.20;;;;;;;12.00;87.47;99414.56;5028009;28;20038;-96
2023/01/02 03:52:36;;;;;;;11.43;3.67;;;;;;;11.98;87.56;99423.03;5009319;28;20307;-96
2023/01/02 03:55:02;;;;;;;8.95;2.47;;;;;;;11.94;87.89;99432.09;4981206;28;20107;-96
2023/01/02 03:58:07;;;;;;;6.85;3.28;;;;;;;11.90;87.53;99423.59;4974452;28;20038;-96
2023/01/02 04:00:56;;;;;;;6.22;2.83;;;;;;;11.94;87.85;99416.50;4978631;28;21149;-96
2023/01/02 04:03:35;;;;;;;22.95;2.90;;;;;;;11.98;87.73;99406.63;4964161;28;20057;-92
2023/01/02 04:06:12;;;;;;;8.57;2.70;;;;;;;12.03;88.22;99423.00;4962795;28;20920;-92
2023/01/02 04:08:41;;;;;;;11.65;3.78;;;;;;;11.99;87.73;99413.75;5021844;28;20052;-96
2023/01/02 04:11:07;;;;;;;8.75;3.35;;;;;;;12.03;87.39;99406.59;5022858;28;20041;-96
2023/01/02 04:13:41;;;;;;;9.48;3.08;;;;;;;12.01;87.77;99425.19;4967883;28;20030;-93
2023/01/02 04:16:09;;;;;;;11.95;2.85;;;;;;;12.00;87.68;99426.28;4962829;28;20056;-92
2023/01/02 04:18:41;;;;;;;15.48;4.30;;;;;;;11.94;87.79;99435.59;5008850;28;20061;-96
2023/01/02 04:21:14;;;;;;;10.38;3.92;;;;;;;11.92;87.54;99429.59;5035326;28;20030;-96
2023/01/02 04:23:45;;;;;;;12.27;3.88;;;;;;;11.97;86.79;99418.66;4969875;28;20065;-93
2023/01/02 04:26:17;;;;;;;10.25;3.17;;;;;;;11.97;87.47;99423.31;4962842;28;20041;-93
2023/01/02 04:28:43;;;;;;;8.18;3.58;;;;;;;11.92;86.89;99426.88;4963207;28;21128;-93
2023/01/02 04:31:24;;;;;;;29.65;4.18;;;;;;;11.92;86.97;99413.22;4963828;28;20789;-93
2023/01/02 04:33:56;;;;;;;18.45;5.18;;;;;;;11.89;87.47;99422.00;4963216;28;20579;-93
2023/01/02 04:36:21;;;;;;;17.77;4.07;;;;;;;11.87;87.12;99419.56;4964184;28;20227;-93
2023/01/02 04:38:47;;;;;;;9.43;2.95;;;;;;;11.91;87.74;99411.59;4963714;28;20608;-93
2023/01/02 04:41:17;;;;;;;13.25;3.05;;;;;;;11.85;86.84;99415.47;4962915;28;20038;-93
2023/01/02 04:43:43;;;;;;;15.38;3.53;;;;;;;11.85;87.31;99415.47;5006315;28;20061;-96
2023/01/02 04:46:08;;;;;;;9.55;3.58;;;;;;;11.82;87.33;99408.63;5009607;28;20045;-96
2023/01/02 04:48:34;;;;;;;9.15;3.40;;;;;;;11.76;87.28;99410.59;4967824;28;20147;-91
2023/01/02 04:50:59;;;;;;;10.85;3.38;;;;;;;11.84;87.00;99413.84;4963283;28;20046;-91
2023/01/02 04:53:25;;;;;;;6.85;2.13;;;;;;;11.85;86.96;99410.81;4973067;28;20151;-96
2023/01/02 04:55:56;;;;;;;7.40;3.70;;;;;;;11.88;86.45;99417.63;4972038;28;20148;-96
2023/01/02 04:58:21;;;;;;;8.15;3.38;;;;;;;11.88;86.38;99420.34;4945750;28;20394;-93
2023/01/02 05:00:47;;;;;;;8.10;3.10;;;;;;;11.87;85.50;99418.72;4961571;28;20737;-93
2023/01/02 05:03:13;;;;;;;6.75;3.00;;;;;;;11.94;85.59;99424.69;5249895;22;20167;-94
2023/01/02 05:05:45;;;;;;;12.63;2.70;;;;;;;11.94;85.39;99412.97;5818509;23;20715;-91
2023/01/02 05:08:11;;;;;;;11.45;2.75;;;;;;;11.89;83.73;99427.47;5010389;22;20480;-94
2023/01/02 05:10:36;;;;;;;13.02;2.95;;;;;;;11.93;83.87;99434.00;4976568;28;20043;-93
2023/01/02 05:18:57;;;;;;;7.28;3.10;;;;;;;11.98;83.48;99447.59;4930568;28;20089;-89
2023/01/02 05:24:06;;;;;;;5.97;2.28;;;;;;;12.04;83.01;99445.66;4932365;28;21174;-90
2023/01/02 05:26:32;;;;;;;4.93;1.75;;;;;;;12.08;83.26;99445.94;4932263;28;20636;-96
2023/01/02 05:28:58;;;;;;;10.45;3.10;;;;;;;12.02;82.90;99440.47;4934349;28;20057;-96
2023/01/02 05:31:23;;;;;;;14.88;4.78;;;;;;;12.01;83.14;99449.78;4933773;28;20034;-96
2023/01/02 05:33:53;;;;;;;9.70;3.78;;;;;;;12.02;83.64;99448.69;4934352;28;20128;-96
2023/01/02 05:36:18;;;;;;;6.75;2.05;;;;;;;11.97;83.78;99443.25;4917285;28;20509;-96
2023/01/02 05:38:44;;;;;;;8.07;3.15;;;;;;;12.01;84.14;99463.44;4993486;28;20047;-96
2023/01/02 05:41:09;;;;;;;12.93;2.78;;;;;;;11.93;84.53;99461.31;4996378;28;20057;-96
2023/01/02 05:43:36;;;;;;;8.20;2.10;;;;;;;11.99;84.71;99460.19;4948196;28;20674;-96
2023/01/02 05:46:18;;;;;;;9.65;2.40;;;;;;;11.90;84.85;99445.47;4950102;28;20041;-96
2023/01/02 05:48:44;;;;;;;10.85;3.22;;;;;;;11.86;85.15;99466.25;4933405;28;20604;-93
2023/01/02 05:51:11;;;;;;;8.88;3.53;;;;;;;11.85;85.70;99470.09;4929856;28;20096;-93
2023/01/02 05:58:48;;;;;;;35.60;4.63;;;;;;;11.82;85.79;99468.72;4965973;23;20985;-91
2023/01/02 06:01:17;;;;;;;8.77;2.78;;;;;;;11.89;85.97;99457.50;4905836;28;20186;-91
2023/01/02 06:03:46;;;;;;;9.80;2.63;;;;;;;11.86;85.89;99471.69;4906568;28;20046;-96
2023/01/02 06:06:13;;;;;;;12.50;2.95;;;;;;;11.90;85.45;99470.03;4907731;28;20358;-96
2023/01/02 06:13:49;;;;;;;7.35;2.28;;;;;;;11.83;85.69;99483.22;4967055;23;20840;-93
2023/01/02 06:16:14;;;;;;;11.13;3.27;;;;;;;11.86;85.75;99477.16;4930017;28;20859;-93
2023/01/02 06:18:40;;;;;;;7.45;2.80;;;;;;;11.90;85.32;99473.59;4975585;28;20940;-96
2023/01/02 06:21:11;;;;;;;7.13;2.72;;;;;;;11.90;85.04;99478.25;4971108;28;21117;-96
2023/01/02 06:23:37;;;;;;;5.40;2.75;;;;;;;11.90;85.16;99484.53;4937595;28;20679;-96
2023/01/02 06:26:15;;;;;;;8.50;2.67;;;;;;;11.94;85.27;99495.72;4932632;28;20690;-96
2023/01/02 06:28:41;;;;;;;7.90;2.20;;;;;;;11.93;84.56;99483.16;4931039;28;21081;-95
2023/01/02 06:31:09;;;;;;;6.47;2.30;;;;;;;11.96;84.76;99487.25;4930126;28;20168;-95
2023/01/02 06:33:34;;;;;;;11.38;2.88;;;;;;;11.98;84.83;99485.84;4934657;28;20046;-96
2023/01/02 06:36:05;;;;;;;6.35;2.20;;;;;;;11.95;83.82;99491.91;4917044;28;20042;-95
2023/01/02 06:38:30;;;;;;;19.52;3.60;;;;;;;11.99;84.19;99497.59;4960587;28;20038;-96
2023/01/02 06:40:58;;;;;;;10.57;3.00;;;;;;;11.95;84.11;99502.00;4965098;28;20034;-96
2023/01/02 06:48:34;;;;;;;8.00;2.70;;;;;;;11.96;84.07;99498.19;5097944;23;20070;-93
2023/01/02 06:51:04;;;;;;;16.33;3.25;;;;;;;12.00;83.73;99500.06;4929936;28;20895;-93
2023/01/02 06:53:33;;;;;;;8.13;2.47;;;;;;;12.02;84.07;99503.31;4931275;28;20049;-91
2023/01/02 06:55:58;;;;;;;6.47;1.42;;;;;;;12.00;84.27;99494.59;4929480;28;20141;-91
2023/01/02 06:58:24;;;;;;;7.95;2.22;;;;;;;12.00;84.62;99505.50;4930206;28;20042;-89
2023/01/02 07:00:50;;;;;;;7.43;1.60;;;;;;;12.05;84.83;99522.97;4931071;28;20202;-88
2023/01/02 07:03:16;;;;;;;9.98;3.15;;;;;;;12.05;84.48;99509.31;4929440;28;20059;-95
2023/01/02 07:05:42;;;;;;;5.32;2.08;;;;;;;12.02;84.19;99514.25;4929016;28;20042;-95
2023/01/02 07:08:08;;;;;;;4.30;1.42;;;;;;;11.96;85.15;99514.56;4984733;28;20049;-96
2023/01/02 07:10:34;;;;;;;3.80;1.67;;;;;;;12.00;85.61;99518.38;5006413;28;20076;-96
2023/01/02 07:13:00;;;;;;;5.88;1.77;;;;;;;11.99;85.59;99505.81;4960620;28;20129;-96
2023/01/02 07:15:25;;;;;;;5.05;1.98;;;;;;;11.97;85.31;99510.72;4931504;28;20121;-96
2023/01/02 07:17:50;;;;;;;6.28;2.00;;;;;;;11.99;85.19;99517.56;4931044;28;21181;-91
2023/01/02 07:20:16;;;;;;;4.60;1.55;;;;;;;11.98;85.74;99512.38;4929243;28;20804;-91
2023/01/02 07:22:41;;;;;;;10.38;3.25;;;;;;;11.99;85.60;99509.34;4929320;28;20454;-95
2023/01/02 07:25:07;;;;;;;5.60;2.53;;;;;;;11.98;85.77;99526.84;4929935;28;20042;-95
2023/01/02 07:27:32;;;;;;;4.57;1.77;;;;;;;11.90;86.05;99528.25;4954766;28;20042;-96
2023/01/02 07:29:57;;;;;;;7.10;1.85;;;;;;;11.89;86.13;99520.31;4997266;28;20073;-96
2023/01/02 07:32:23;;;;;;;4.50;2.35;;;;;;;11.88;86.27;99529.59;4968337;28;20080;-93
2023/01/02 07:34:50;;;;;;;4.75;1.75;;;;;;;11.89;86.85;99531.25;4929119;28;20338;-94
2023/01/02 07:37:16;;;;;;;6.28;2.67;;;;;;;11.83;87.37;99532.38;4929689;28;20050;-89
2023/01/02 07:39:41;;;;;;;6.50;2.05;;;;;;;11.82;88.09;99544.41;4933836;28;20053;-89
2023/01/02 07:42:06;;;;;;;10.47;1.83;;;;;;;11.86;88.55;99546.28;4941245;28;20053;-96
2023/01/02 07:44:32;;;;;;;6.20;2.10;;;;;;;11.78;88.92;99547.69;4945118;28;20327;-96
2023/01/02 07:46:57;;;;;;;7.38;2.15;;;;;;;11.74;89.63;99554.78;4951675;28;20088;-96
2023/01/02 07:49:22;;;;;;;4.25;1.70;;;;;;;11.81;90.29;99562.69;4987225;28;20039;-96
2023/01/02 07:51:48;;;;;;;7.03;2.85;;;;;;;11.69;90.18;99563.00;4976225;28;20038;-92
2023/01/02 07:54:13;;;;;;;7.93;1.95;;;;;;;11.62;91.53;99562.47;4932912;28;20066;-92
2023/01/02 07:56:38;;;;;;;8.02;3.55;;;;;;;11.59;91.83;99565.75;4931562;28;20049;-93
2023/01/02 07:59:04;;;;;;;6.28;2.28;;;;;;;11.56;91.91;99567.94;4915400;28;20046;-93
2023/01/02 08:01:29;;;;;;;5.25;2.00;;;;;;;11.63;92.05;99572.31;4932616;28;20693;-93
2023/01/02 08:03:54;;;;;;;8.90;2.65;;;;;;;11.58;92.20;99577.75;4932441;28;20034;-93
2023/01/02 08:06:20;;;;;;;6.40;2.60;;;;;;;11.63;92.23;99583.22;4932555;28;20180;-93
2023/01/02 08:08:45;;;;;;;9.17;2.40;;;;;;;11.59;92.03;99584.88;4959107;28;20302;-96
2023/01/02 08:11:14;;;;;;;5.90;2.33;;;;;;;11.54;92.78;99580.22;4963406;28;20310;-96
2023/01/02 08:13:39;;;;;;;6.40;2.22;;;;;;;11.54;93.25;99597.44;4935885;28;20615;-89
2023/01/02 08:16:07;;;;;;;7.57;2.38;;;;;;;11.53;92.98;99598.50;4932435;28;20999;-89
2023/01/02 08:18:33;;;;;;;9.07;2.42;;;;;;;11.62;92.95;99596.06;4916914;28;20046;-93
2023/01/02 08:20:58;;;;;;;7.18;2.55;;;;;;;11.50;93.54;99600.97;4932493;28;20099;-93
2023/01/02 08:23:24;;;;;;;12.00;4.05;;;;;;;11.54;93.77;99611.09;4953759;28;20033;-96
2023/01/02 08:25:49;;;;;;;8.20;2.97;;;;;;;11.55;93.22;99618.16;4958259;28;20043;-96
2023/01/02 08:28:14;;;;;;;7.53;2.93;;;;;;;11.50;94.28;99634.56;4954683;28;20294;-96
2023/01/02 08:30:40;;;;;;;7.47;3.07;;;;;;;11.44;94.49;99633.75;4956832;28;20395;-96
2023/01/02 08:33:05;;;;;;;5.72;2.13;;;;;;;11.46;94.50;99633.47;4957554;28;20881;-96
2023/01/02 08:35:30;;;;;;;8.20;2.53;;;;;;;11.40;95.39;99631.84;4960288;28;20046;-96
2023/01/02 08:37:56;;;;;;;10.27;2.73;;;;;;;11.37;95.79;99641.38;4950577;28;20505;-96
2023/01/02 08:40:21;;;;;;;6.88;2.90;;;;;;;11.39;95.87;99643.88;4938951;28;20413;-95
2023/01/02 08:42:46;;;;;;;5.40;2.40;;;;;;;11.37;96.29;99644.13;4934017;28;20851;-94
2023/01/02 08:45:12;;;;;;;9.33;2.67;;;;;;;11.27;96.61;99647.66;4933057;28;20578;-93
2023/01/02 08:47:37;;;;;;;12.48;5.07;;;;;;;11.41;96.63;99652.59;4931440;28;21109;-94
2023/01/02 08:50:03;;;;;;;9.98;2.28;;;;;;;11.45;96.62;99664.63;4931420;28;20049;-94
2023/01/02 08:52:28;;;;;;;4.90;2.22;;;;;;;11.41;96.63;99675.22;4931782;28;20031;-93
2023/01/02 08:54:53;;;;;;;20.63;2.97;;;;;;;11.38;96.74;99656.69;4931358;28;20511;-92
2023/01/02 08:57:19;;;;;;;7.07;2.00;;;;;;;11.29;96.99;99675.50;4931402;28;21009;-93
2023/01/02 08:59:44;;;;;;;3.75;1.60;;;;;;;11.36;97.16;99674.41;4931281;28;20093;-93
2023/01/02 09:02:13;;;;;;;4.40;1.47;;;;;;;11.35;97.33;99686.44;4932921;28;20034;-89
2023/01/02 09:04:39;;;;;;;13.10;2.72;;;;;;;11.45;96.96;99689.19;4916328;28;20383;-89
2023/01/02 09:07:04;;;;;;;6.10;2.03;;;;;;;11.31;96.61;99680.69;4934163;28;20043;-94
2023/01/02 09:09:30;;;;;;;8.15;2.50;;;;;;;11.35;96.68;99689.19;4931609;28;20496;-94
2023/01/02 09:11:55;;;;;;;4.47;2.33;;;;;;;11.34;97.41;99702.00;4932564;28;20081;-94
2023/01/02 09:14:21;;;;;;;5.68;2.65;;;;;;;11.31;96.94;99713.44;4931579;28;20496;-94
2023/01/02 09:16:48;;;;;;;4.65;1.60;;;;;;;11.32;97.11;99704.16;4931933;28;21150;-89
2023/01/02 09:19:13;;;;;;;5.05;2.30;;;;;;;11.36;96.80;99723.56;4932138;28;20161;-89
2023/01/02 09:21:39;;;;;;;8.55;2.55;;;;;;;11.30;97.84;99742.66;4933615;28;20172;-93
2023/01/02 09:24:05;;;;;;;5.05;2.40;;;;;;;11.23;97.59;99747.53;4931972;28;20794;-94
2023/01/02 09:26:30;;;;;;;7.75;2.38;;;;;;;11.39;97.69;99759.31;4931245;28;20038;-94
2023/01/02 09:28:56;;;;;;;5.43;2.00;;;;;;;11.38;97.43;99773.22;4932463;28;20300;-94
2023/01/02 09:31:21;;;;;;;15.60;2.57;;;;;;;11.05;97.84;99774.25;4930940;28;20056;-93
2023/01/02 09:33:47;;;;;;;4.22;2.00;;;;;;;11.08;97.75;99786.53;4933092;28;20262;-89
2023/01/02 09:36:14;;;;;;;7.75;1.73;;;;;;;11.03;97.63;99783.78;4932688;28;20764;-89
2023/01/02 09:38:40;;;;;;;1.95;0.73;;;;;;;11.00;96.38;99782.41;4931144;28;20038;-94
2023/01/02 09:41:16;;;;;;;1.50;0.52;;;;;;;10.96;95.73;99795.75;4930320;28;20042;-94
2023/01/02 09:43:48;;;;;;;3.45;0.98;;;;;;;10.97;95.61;99799.31;4931067;28;20957;-94
2023/01/02 09:46:36;;;;;;;1.95;0.65;;;;;;;11.02;94.83;99801.25;4930627;28;20057;-92
2023/01/02 09:49:03;;;;;;;3.83;0.52;;;;;;;11.03;94.62;99803.69;4931976;28;20061;-92
2023/01/02 09:51:33;;;;;;;1.80;0.52;;;;;;;11.15;94.33;99792.53;4932230;28;20038;-95
2023/01/02 09:53:59;;;;;;;1.33;0.40;;;;;;;11.17;93.69;99806.75;4997467;28;20160;-96
2023/01/02 09:56:42;;;;;;;0.98;0.50;;;;;;;11.25;93.61;99819.03;4983499;28;20080;-96
2023/01/02 09:59:32;;;;;;;2.28;0.50;;;;;;;11.17;93.73;99825.84;4992238;28;20376;-96
2023/01/02 10:02:00;;;;;;;3.28;0.90;;;;;;;11.12;93.38;99831.31;4979884;28;20149;-96
2023/01/02 10:05:07;;;;;;;2.78;1.17;;;;;;;11.03;93.01;99827.41;4934573;28;21389;-96
2023/01/02 10:07:43;;;;;;;10.60;1.35;;;;;;;11.07;93.30;99840.28;4912668;28;20050;-95
2023/01/02 10:10:33;;;;;;;2.63;1.17;;;;;;;11.08;92.63;99838.38;4931069;28;20044;-95
2023/01/02 10:13:26;;;;;;;14.77;1.38;;;;;;;11.07;93.03;99840.28;5024409;23;20124;-92
2023/01/02 10:15:53;;;;;;;4.28;1.40;;;;;;;10.98;92.74;99858.25;4933053;28;20046;-87
2023/01/02 10:18:34;;;;;;;4.90;2.17;;;;;;;10.74;92.16;99855.91;4973507;23;20062;-96
2023/01/02 10:21:23;;;;;;;6.68;2.40;;;;;;;10.76;92.47;99870.09;5006124;28;20038;-96
2023/01/02 10:23:57;;;;;;;2.67;1.52;;;;;;;10.71;92.84;99867.34;5000560;28;20042;-96
2023/01/02 10:26:27;;;;;;;;;;;;;;;10.76;93.16;99872.84;4963772;28;20034;-97
2023/01/02 10:29:20;;;;;;;8.10;3.25;;;;;;;10.88;92.87;99874.56;4997155;28;20550;-96
2023/01/02 10:31:54;;;;;;;7.45;2.63;;;;;;;10.98;93.06;99863.69;4972531;28;20042;-94
2023/01/02 10:34:22;;;;;;;5.50;2.88;;;;;;;10.85;92.26;99882.19;4931496;28;20907;-94
2023/01/02 10:36:48;;;;;;;6.13;2.88;;;;;;;10.95;92.06;99880.59;4932013;28;20110;-94
2023/01/02 10:39:21;;;;;;;6.40;3.00;;;;;;;10.93;91.88;99866.38;4935076;28;20053;-95
2023/01/02 10:41:49;;;;;;;8.93;3.78;;;;;;;10.86;91.60;99867.44;4916713;28;20042;-95
2023/01/02 10:44:36;;;;;;;8.70;4.60;;;;;;;10.86;92.16;99883.81;4930572;28;20615;-95
2023/01/02 10:47:14;;;;;;;7.88;4.25;;;;;;;10.94;92.16;99873.50;4933933;28;20193;-94
2023/01/02 10:49:42;;;;;;;10.38;5.97;;;;;;;11.02;91.94;99872.16;4936209;28;20680;-95
2023/01/02 10:52:33;;;;;;;7.28;3.67;;;;;;;10.98;90.76;99869.16;4919423;28;20481;-95
2023/01/02 10:55:00;;;;;;;7.53;4.03;;;;;;;10.88;90.28;99874.56;4936620;28;21000;-94
2023/01/02 10:57:38;;;;;;;7.22;3.47;;;;;;;10.89;90.99;99877.00;4933937;28;20042;-92
2023/01/02 11:00:07;;;;;;;8.30;2.80;;;;;;;10.86;89.95;99872.91;4931717;28;20379;-92
2023/01/02 11:02:38;;;;;;;6.38;3.72;;;;;;;10.83;90.73;99878.91;4914003;28;20543;-93
2023/01/02 11:05:05;;;;;;;8.98;3.42;;;;;;;10.83;90.36;99884.34;4931162;28;20340;-93
2023/01/02 11:07:34;;;;;;;8.50;3.67;;;;;;;10.82;91.31;99882.69;4951255;28;20897;-96
2023/01/02 11:09:59;;;;;;;8.77;4.43;;;;;;;10.76;91.22;99894.66;4978374;28;20098;-96
2023/01/02 11:12:25;;;;;;;10.25;4.90;;;;;;;10.85;91.45;99887.63;4990340;28;20033;-96
2023/01/02 11:15:33;;;;;;;8.07;3.85;;;;;;;10.90;90.82;99886.81;5013403;28;20077;-96
2023/01/02 11:18:00;;;;;;;9.70;3.83;;;;;;;11.04;91.16;99895.38;4976052;28;20046;-96
2023/01/02 11:20:34;;;;;;;4.07;2.42;;;;;;;11.06;91.19;99893.22;4972806;28;20041;-96
2023/01/02 11:23:02;;;;;;;6.80;3.35;;;;;;;11.00;91.30;99893.44;4979164;28;20030;-96
2023/01/02 11:25:34;;;;;;;6.38;3.28;;;;;;;11.16;90.98;99903.34;4967061;28;20647;-96
2023/01/02 11:28:01;;;;;;;5.05;2.28;;;;;;;11.23;90.22;99897.63;4945253;28;20038;-95
2023/01/02 11:30:28;;;;;;;6.05;3.10;;;;;;;11.26;90.41;99899.03;4921465;28;20763;-94
2023/01/02 11:33:12;;;;;;;7.28;3.60;;;;;;;11.28;90.03;99905.03;4936034;28;20042;-89
2023/01/02 11:35:45;;;;;;;7.22;3.17;;;;;;;11.34;90.37;99901.25;4937677;28;20049;-89
2023/01/02 11:38:16;;;;;;;5.97;2.88;;;;;;;11.32;89.43;99906.16;4934851;28;20050;-94
2023/01/02 11:40:52;;;;;;;7.60;4.13;;;;;;;11.21;89.99;99906.09;4934044;28;20397;-95
2023/01/02 11:46:13;;;;;;;7.80;4.18;;;;;;;11.05;89.07;99912.56;4999658;28;20054;-96
2023/01/02 11:48:39;;;;;;;6.32;3.40;;;;;;;11.16;90.02;99914.28;4939378;23;20077;-89
2023/01/02 11:51:14;;;;;;;7.65;4.03;;;;;;;11.29;88.93;99906.66;4932211;28;20046;-88
2023/01/02 11:53:44;;;;;;;8.93;4.30;;;;;;;11.31;88.54;99909.94;4932403;28;20767;-89
2023/01/02 11:56:16;;;;;;;7.43;4.05;;;;;;;11.14;88.92;99901.97;4932278;28;20833;-88
2023/01/02 11:58:52;;;;;;;8.23;4.57;;;;;;;11.02;88.43;99907.63;4933088;28;20484;-88
2023/01/02 12:01:51;;;;;;;7.05;3.85;;;;;;;11.09;88.79;99911.78;4933481;28;20070;-88
2023/01/02 12:04:16;;;;;;;9.48;5.22;;;;;;;11.00;88.72;99910.63;4932838;28;20674;-92
2023/01/02 12:07:10;;;;;;;9.35;4.63;;;;;;;10.97;88.74;99927.50;4935444;28;20372;-91
2023/01/02 12:09:50;;;;;;;7.78;4.38;;;;;;;10.97;89.22;99911.16;4934204;28;20066;-90
2023/01/02 12:12:26;;;;;;;8.32;4.80;;;;;;;11.15;89.05;99917.25;4933907;28;20679;-89
2023/01/02 12:15:06;;;;;;;8.85;3.97;;;;;;;11.20;88.92;99917.28;4934082;28;20034;-90